Time;durP1;ratioP1;P1;durP2;ratioP2;P2;SDS_P1;SDS_P2;PMS_P1;PMS_P2;Temp;Humidity;BMP_temperature;BMP_pressure;BME280_temperature;BME280_humidity;BME280_pressure;Samples;Min_cycle;Max_cycle;Signal;HPM_P1;HPM_P2
2024/04/10 00:01:43;;;;;;;3.30;1.40;;;24.20;61.60;;;;;;5474846;26;20301;-91
2024/04/10 00:04:11;;;;;;;3.07;1.40;;;24.30;61.70;;;;;;5478551;26;20433;-91
2024/04/10 00:06:37;;;;;;;2.23;1.20;;;24.20;61.60;;;;;;5458512;26;20311;-92
2024/04/10 00:09:06;;;;;;;3.80;1.80;;;24.20;61.60;;;;;;5455443;26;20453;-92
2024/04/10 00:11:32;;;;;;;2.73;1.80;;;24.20;61.50;;;;;;5455478;26;20254;-92
2024/04/10 00:14:00;;;;;;;3.97;1.63;;;24.20;61.70;;;;;;5456099;26;20505;-91
2024/04/10 00:16:29;;;;;;;4.40;1.30;;;24.20;61.70;;;;;;5445153;26;20341;-91
2024/04/10 00:18:57;;;;;;;4.00;1.70;;;24.20;61.90;;;;;;5419790;26;20496;-90
2024/04/10 00:21:23;;;;;;;2.13;1.30;;;24.10;61.50;;;;;;5419612;26;20459;-91
2024/04/10 00:23:52;;;;;;;3.23;1.40;;;24.10;61.60;;;;;;5419624;26;20532;-91
2024/04/10 00:26:18;;;;;;;2.53;1.57;;;24.10;61.60;;;;;;5419626;26;20298;-91
2024/04/10 00:28:46;;;;;;;3.23;1.47;;;24.20;61.80;;;;;;5419944;26;20467;-91
2024/04/10 00:31:12;;;;;;;3.13;1.53;;;24.10;61.80;;;;;;5419593;26;20564;-90
2024/04/10 00:33:43;;;;;;;2.37;1.30;;;24.10;61.70;;;;;;5418533;26;20458;-90
2024/04/10 00:36:11;;;;;;;2.20;1.30;;;24.10;61.60;;;;;;5419751;26;20221;-91
2024/04/10 00:38:39;;;;;;;2.80;1.47;;;24.10;61.60;;;;;;5419842;26;20489;-91
2024/04/10 00:41:06;;;;;;;2.10;1.40;;;24.10;61.70;;;;;;5419821;26;20459;-91
2024/04/10 00:43:35;;;;;;;3.07;1.53;;;24.10;61.70;;;;;;5425415;26;20454;-90
2024/04/10 00:46:08;;;;;;;5.10;1.90;;;24.10;61.70;;;;;;5441705;26;20544;-91
2024/04/10 00:48:37;;;;;;;2.20;1.27;;;24.10;61.60;;;;;;5441506;26;20490;-90
2024/04/10 00:51:08;;;;;;;2.83;1.90;;;24.10;61.80;;;;;;5433454;26;20571;-90
2024/04/10 00:53:36;;;;;;;2.37;1.40;;;24.10;61.80;;;;;;5419580;26;20523;-91
2024/04/10 00:56:03;;;;;;;2.93;1.50;;;24.10;61.70;;;;;;5419390;26;20547;-91
2024/04/10 00:58:33;;;;;;;3.10;1.83;;;24.00;61.70;;;;;;5418631;26;20894;-91
2024/04/10 01:01:00;;;;;;;2.43;1.50;;;24.00;61.50;;;;;;5418871;26;20497;-91
2024/04/10 01:03:29;;;;;;;4.80;1.90;;;24.10;61.60;;;;;;5419338;26;20443;-90
2024/04/10 01:05:58;;;;;;;4.60;1.77;;;24.00;61.60;;;;;;5418553;26;20443;-90
2024/04/10 01:08:31;;;;;;;2.23;1.63;;;24.00;61.70;;;;;;5418296;26;20771;-90
2024/04/10 01:10:58;;;;;;;2.97;1.60;;;24.00;61.50;;;;;;5418292;26;21004;-90
2024/04/10 01:13:27;;;;;;;2.80;1.47;;;24.00;61.60;;;;;;5418650;26;20494;-91
2024/04/10 01:15:53;;;;;;;3.67;1.80;;;24.00;61.50;;;;;;5418228;26;20518;-91
2024/04/10 01:18:21;;;;;;;2.47;1.50;;;24.10;61.80;;;;;;5418412;26;20455;-91
2024/04/10 01:20:48;;;;;;;2.77;1.60;;;24.00;61.50;;;;;;5418484;26;20953;-91
2024/04/10 01:23:20;;;;;;;2.90;1.40;;;24.00;61.60;;;;;;5420959;26;20624;-90
2024/04/10 01:25:46;;;;;;;2.73;1.33;;;24.10;61.70;;;;;;5418500;26;20446;-91
2024/04/10 01:28:14;;;;;;;1.90;1.00;;;24.00;61.50;;;;;;5418478;26;20478;-91
2024/04/10 01:30:40;;;;;;;2.80;1.60;;;24.00;61.60;;;;;;5418204;26;20494;-91
2024/04/10 01:33:09;;;;;;;3.00;1.50;;;24.10;61.80;;;;;;5418177;26;20568;-91
2024/04/10 01:35:35;;;;;;;2.53;1.43;;;24.00;61.50;;;;;;5418036;26;20221;-90
2024/04/10 01:38:03;;;;;;;1.77;1.10;;;24.00;61.60;;;;;;5418045;26;20504;-91
2024/04/10 01:40:32;;;;;;;2.80;1.30;;;24.10;61.80;;;;;;5418180;26;20217;-91
2024/04/10 01:43:00;;;;;;;4.20;1.33;;;24.00;61.80;;;;;;5417651;26;20442;-91
2024/04/10 01:45:26;;;;;;;2.77;1.80;;;24.00;61.60;;;;;;5419227;26;20442;-91
2024/04/10 01:47:55;;;;;;;4.77;1.80;;;24.00;61.60;;;;;;5421317;26;20442;-91
2024/04/10 01:50:21;;;;;;;3.33;1.67;;;23.90;61.60;;;;;;5421793;26;20220;-91
2024/04/10 01:52:49;;;;;;;3.70;1.50;;;23.90;61.40;;;;;;5421247;26;20453;-91
2024/04/10 01:55:15;;;;;;;2.30;1.20;;;23.90;61.50;;;;;;5421783;26;20212;-91
2024/04/10 01:57:46;;;;;;;3.93;1.63;;;24.00;61.60;;;;;;5420988;26;20517;-91
2024/04/10 02:00:14;;;;;;;2.67;1.43;;;24.00;61.60;;;;;;5422022;26;20543;-91
2024/04/10 02:02:42;;;;;;;2.60;1.60;;;23.90;61.40;;;;;;5421066;26;20551;-92
2024/04/10 02:05:08;;;;;;;3.97;1.87;;;23.90;61.70;;;;;;5421021;26;20490;-91
2024/04/10 02:07:37;;;;;;;3.60;1.50;;;23.90;61.40;;;;;;5421429;26;21028;-91
2024/04/10 02:10:03;;;;;;;2.00;1.33;;;23.90;61.40;;;;;;5420924;26;20216;-91
2024/04/10 02:12:32;;;;;;;2.47;1.43;;;23.90;61.50;;;;;;5420570;26;20518;-91
2024/04/10 02:15:00;;;;;;;2.83;1.57;;;23.90;61.40;;;;;;5420968;26;20949;-91
2024/04/10 02:17:28;;;;;;;1.90;1.30;;;23.90;61.40;;;;;;5420981;26;20450;-91
2024/04/10 02:19:54;;;;;;;3.13;1.53;;;23.80;61.40;;;;;;5421052;26;20542;-91
2024/04/10 02:22:23;;;;;;;3.23;1.70;;;23.90;61.40;;;;;;5420770;26;20461;-91
2024/04/10 02:24:51;;;;;;;3.00;1.70;;;23.90;61.40;;;;;;5422075;26;20216;-91
2024/04/10 02:27:20;;;;;;;2.73;1.27;;;23.80;61.30;;;;;;5422064;26;20550;-91
2024/04/10 02:29:45;;;;;;;2.93;1.43;;;23.80;61.30;;;;;;5421007;26;20455;-91
2024/04/10 02:32:17;;;;;;;4.00;2.23;;;23.80;62.10;;;;;;5420617;26;20446;-92
2024/04/10 02:34:44;;;;;;;2.93;1.50;;;23.90;61.50;;;;;;5421461;26;20492;-91
2024/04/10 02:37:13;;;;;;;3.00;1.37;;;23.80;61.50;;;;;;5420776;26;20497;-90
2024/04/10 02:39:39;;;;;;;2.13;1.30;;;23.90;61.60;;;;;;5420890;26;20462;-91
2024/04/10 02:42:07;;;;;;;3.13;1.40;;;23.80;61.50;;;;;;5420785;26;20953;-90
2024/04/10 02:44:33;;;;;;;3.50;1.43;;;23.80;61.40;;;;;;5420743;26;20489;-93
2024/04/10 02:47:02;;;;;;;2.50;1.60;;;23.80;61.50;;;;;;5422579;26;20501;-95
2024/04/10 02:49:40;;;;;;;7.63;1.93;;;23.80;61.40;;;;;;5423148;26;20479;-94
2024/04/10 02:52:14;;;;;;;3.00;1.40;;;23.80;61.30;;;;;;5421401;26;20368;-95
2024/04/10 03:08:05;;;;;;;9.27;2.50;;;23.80;61.30;;;;;;5627364;21;20548;-95
2024/04/10 03:10:31;;;;;;;10.77;2.50;;;23.70;58.00;;;;;;5414831;26;20478;-92
2024/04/10 03:13:00;;;;;;;10.03;2.63;;;23.60;57.40;;;;;;5421466;26;20494;-92
2024/04/10 03:15:26;;;;;;;9.50;2.13;;;23.50;58.10;;;;;;5441159;26;20452;-91
2024/04/10 03:17:54;;;;;;;4.67;1.90;;;23.50;59.30;;;;;;5442863;26;20497;-91
2024/04/10 03:20:20;;;;;;;4.07;1.90;;;23.50;60.20;;;;;;5427176;26;20450;-91
2024/04/10 03:22:49;;;;;;;3.23;1.53;;;23.50;60.70;;;;;;5420426;26;20506;-92
2024/04/10 03:25:17;;;;;;;5.93;1.60;;;23.60;60.90;;;;;;5420498;26;20571;-93
2024/04/10 03:27:46;;;;;;;4.83;1.80;;;23.60;60.90;;;;;;5419752;26;20470;-92
2024/04/10 03:30:12;;;;;;;6.10;1.67;;;23.50;60.90;;;;;;5420253;26;20564;-91
2024/04/10 03:32:40;;;;;;;5.23;2.30;;;23.60;61.20;;;;;;5419953;26;20462;-93
2024/04/10 03:35:06;;;;;;;4.87;1.90;;;23.60;61.20;;;;;;5419714;26;20309;-92
2024/04/10 03:37:35;;;;;;;2.50;1.50;;;23.60;61.30;;;;;;5419808;26;21120;-91
2024/04/10 03:40:01;;;;;;;2.60;1.40;;;23.60;61.30;;;;;;5419837;26;20501;-91
2024/04/10 03:42:32;;;;;;;4.57;2.03;;;23.70;61.30;;;;;;5419895;26;20867;-93
2024/04/10 03:45:01;;;;;;;3.87;1.83;;;23.60;61.20;;;;;;5420075;26;20324;-92
2024/04/10 03:47:29;;;;;;;5.30;2.30;;;23.60;61.30;;;;;;5420024;26;20521;-92
2024/04/10 03:49:55;;;;;;;8.87;2.00;;;23.60;61.20;;;;;;5420095;26;21013;-92
2024/04/10 03:52:37;;;;;;;2.77;1.30;;;23.70;61.50;;;;;;5420274;26;20517;-92
2024/04/10 03:55:03;;;;;;;4.90;1.43;;;23.60;61.30;;;;;;5420086;26;20458;-92
2024/04/10 03:57:34;;;;;;;2.80;1.37;;;23.60;61.30;;;;;;5420451;26;20470;-93
2024/04/10 04:00:00;;;;;;;3.10;1.50;;;23.60;61.40;;;;;;5419938;26;20559;-91
2024/04/10 04:02:28;;;;;;;4.50;1.83;;;23.60;61.40;;;;;;5420290;26;20450;-92
2024/04/10 04:04:57;;;;;;;3.33;1.60;;;23.60;61.30;;;;;;5419566;26;20224;-92
2024/04/10 04:07:23;;;;;;;3.93;1.93;;;23.60;61.40;;;;;;5419680;26;20461;-92
2024/04/10 04:09:51;;;;;;;4.57;1.50;;;23.60;62.30;;;;;;5418474;26;20976;-92
2024/04/10 04:12:17;;;;;;;3.37;1.60;;;23.60;61.40;;;;;;5419187;26;20266;-92
2024/04/10 04:14:48;;;;;;;5.37;2.40;;;23.60;61.30;;;;;;5420543;26;20455;-92
2024/04/10 04:17:14;;;;;;;3.50;1.30;;;23.60;61.40;;;;;;5420902;26;20255;-92
2024/04/10 04:19:43;;;;;;;8.93;1.70;;;23.60;61.40;;;;;;5421097;26;20450;-95
2024/04/10 04:22:08;;;;;;;4.67;1.90;;;23.70;61.60;;;;;;5421894;26;20216;-93
2024/04/10 04:24:40;;;;;;;3.87;1.70;;;23.60;61.50;;;;;;5421254;26;20514;-92
2024/04/10 04:27:08;;;;;;;3.20;1.57;;;23.70;61.60;;;;;;5421187;26;20294;-92
2024/04/10 04:29:36;;;;;;;6.67;2.03;;;23.60;61.50;;;;;;5421184;26;20454;-93
2024/04/10 04:32:05;;;;;;;2.30;1.47;;;23.60;61.40;;;;;;5419872;26;20458;-94
2024/04/10 04:34:34;;;;;;;5.00;1.53;;;23.60;61.40;;;;;;5419030;26;20525;-93
2024/04/10 04:37:00;;;;;;;5.97;1.93;;;23.60;61.40;;;;;;5421450;26;20576;-92
2024/04/10 04:39:28;;;;;;;3.50;1.63;;;23.70;61.60;;;;;;5420405;26;20435;-92
2024/04/10 04:41:54;;;;;;;2.73;1.37;;;23.50;61.40;;;;;;5420024;26;20572;-95
2024/04/10 04:44:23;;;;;;;3.50;1.50;;;23.50;61.50;;;;;;5420403;26;20454;-92
2024/04/10 04:46:49;;;;;;;2.67;1.30;;;23.50;61.40;;;;;;5423848;26;20756;-92
2024/04/10 04:49:20;;;;;;;4.40;1.70;;;23.50;61.50;;;;;;5390005;26;20458;-92
2024/04/10 04:51:46;;;;;;;3.30;1.40;;;23.60;61.60;;;;;;5419786;26;20568;-92
2024/04/10 04:54:15;;;;;;;2.37;1.20;;;23.50;61.40;;;;;;5419273;26;20500;-92
2024/04/10 04:56:41;;;;;;;3.30;1.70;;;23.50;61.50;;;;;;5419247;26;20553;-91
2024/04/10 04:59:10;;;;;;;3.97;1.50;;;23.50;61.40;;;;;;5419327;26;20450;-94
2024/04/10 05:01:35;;;;;;;6.00;1.67;;;23.50;61.40;;;;;;5419203;26;20548;-92
2024/04/10 05:06:51;;;;;;;3.07;1.40;;;23.60;61.50;;;;;;5421764;26;20219;-91
2024/04/10 05:09:17;;;;;;;2.47;1.50;;;23.50;61.50;;;;;;5419028;26;20470;-92
2024/04/10 05:11:46;;;;;;;2.67;1.60;;;23.60;61.50;;;;;;5419198;26;20496;-93
2024/04/10 05:14:11;;;;;;;3.00;1.23;;;23.60;61.60;;;;;;5419218;26;20220;-92
2024/04/10 05:16:40;;;;;;;4.73;1.77;;;23.50;61.50;;;;;;5418910;26;20496;-93
2024/04/10 05:19:06;;;;;;;2.40;1.20;;;23.60;61.60;;;;;;5418760;26;20216;-93
2024/04/10 05:21:34;;;;;;;3.53;1.30;;;23.50;61.40;;;;;;5421310;26;20498;-92
2024/04/10 05:24:03;;;;;;;3.87;1.57;;;23.50;62.30;;;;;;5422594;26;20644;-92
2024/04/10 05:26:32;;;;;;;3.20;1.80;;;23.50;61.40;;;;;;5439269;26;20437;-91
2024/04/10 05:28:58;;;;;;;3.27;1.40;;;23.60;61.50;;;;;;5444457;26;20528;-91
2024/04/10 05:31:26;;;;;;;4.17;1.53;;;23.50;61.30;;;;;;5444561;26;20454;-92
2024/04/10 05:33:52;;;;;;;4.37;1.43;;;23.60;61.60;;;;;;5430560;26;20434;-92
2024/04/10 05:36:21;;;;;;;2.80;1.30;;;23.50;61.50;;;;;;5423563;26;20497;-93
2024/04/10 05:38:47;;;;;;;2.20;1.50;;;23.50;62.40;;;;;;5423362;26;21165;-92
2024/04/10 05:41:18;;;;;;;2.87;1.80;;;23.60;61.70;;;;;;5422362;26;20491;-92
2024/04/10 05:43:44;;;;;;;3.30;1.80;;;23.50;61.60;;;;;;5421941;26;20217;-92
2024/04/10 05:46:12;;;;;;;2.40;1.33;;;23.40;61.40;;;;;;5421681;26;20523;-91
2024/04/10 05:48:41;;;;;;;3.03;1.23;;;23.50;61.50;;;;;;5421932;26;20240;-91
2024/04/10 05:51:08;;;;;;;2.60;1.30;;;23.40;61.40;;;;;;5422104;26;20442;-92
2024/04/10 05:53:37;;;;;;;2.60;1.20;;;23.60;61.60;;;;;;5421476;26;20501;-92
2024/04/10 05:56:04;;;;;;;3.30;1.63;;;23.50;61.50;;;;;;5421571;26;20553;-92
2024/04/10 05:58:37;;;;;;;3.17;1.60;;;23.50;61.60;;;;;;5421985;26;20458;-92
2024/04/10 06:01:07;;;;;;;2.57;1.43;;;23.50;61.70;;;;;;5421560;26;20931;-91
2024/04/10 06:03:35;;;;;;;2.87;1.47;;;23.50;61.50;;;;;;5421955;26;20454;-92
2024/04/10 06:06:06;;;;;;;2.83;1.47;;;23.40;61.60;;;;;;5421282;26;20446;-90
2024/04/10 06:08:37;;;;;;;3.03;1.50;;;23.40;61.50;;;;;;5421995;26;20450;-91
2024/04/10 06:11:03;;;;;;;4.13;1.87;;;23.40;61.50;;;;;;5421802;26;20470;-90
2024/04/10 06:13:35;;;;;;;3.10;1.63;;;23.40;61.60;;;;;;5421436;26;20543;-91
2024/04/10 06:16:02;;;;;;;2.83;1.27;;;23.40;61.50;;;;;;5421718;26;20541;-90
2024/04/10 06:18:31;;;;;;;3.27;1.40;;;23.40;61.50;;;;;;5421632;26;20500;-91
2024/04/10 06:20:57;;;;;;;2.50;1.30;;;23.40;61.60;;;;;;5421272;26;20539;-92
2024/04/10 06:23:27;;;;;;;3.20;1.70;;;23.40;61.50;;;;;;5421510;26;20521;-92
2024/04/10 06:25:52;;;;;;;2.83;1.37;;;23.40;61.50;;;;;;5433387;26;20472;-92
2024/04/10 06:28:21;;;;;;;4.97;1.93;;;23.50;61.70;;;;;;5443321;26;20454;-92
2024/04/10 06:30:56;;;;;;;3.30;1.70;;;23.50;61.70;;;;;;5436059;26;20556;-92
2024/04/10 06:33:24;;;;;;;2.27;1.20;;;23.50;61.70;;;;;;5420326;26;20461;-92
2024/04/10 06:35:50;;;;;;;3.17;1.40;;;23.40;61.60;;;;;;5421167;26;20490;-92
2024/04/10 06:38:18;;;;;;;3.33;1.50;;;23.40;61.60;;;;;;5421177;26;20560;-93
2024/04/10 06:40:52;;;;;;;4.17;1.37;;;23.40;61.60;;;;;;5420815;26;20220;-92
2024/04/10 06:43:21;;;;;;;2.10;1.13;;;23.40;61.60;;;;;;5420789;26;20442;-92
2024/04/10 06:45:57;;;;;;;2.67;1.23;;;23.30;61.50;;;;;;5420887;26;20454;-92
2024/04/10 06:48:25;;;;;;;2.30;1.20;;;23.40;61.70;;;;;;5420386;26;20446;-92
2024/04/10 06:50:53;;;;;;;2.13;1.00;;;23.30;61.50;;;;;;5420815;26;20964;-92
2024/04/10 06:53:21;;;;;;;2.83;1.43;;;23.30;61.50;;;;;;5420580;26;20458;-91
2024/04/10 06:55:52;;;;;;;2.10;1.30;;;23.50;61.80;;;;;;5420594;26;20490;-92
2024/04/10 06:58:21;;;;;;;3.20;1.20;;;23.30;61.60;;;;;;5420788;26;20856;-92
2024/04/10 07:00:57;;;;;;;4.03;1.77;;;23.30;61.60;;;;;;5420398;26;20497;-92
2024/04/10 07:03:26;;;;;;;2.80;1.50;;;23.30;61.60;;;;;;5421127;26;20576;-92
2024/04/10 07:06:00;;;;;;;2.80;1.67;;;23.40;61.70;;;;;;5420748;26;20438;-92
2024/04/10 07:08:29;;;;;;;4.53;1.83;;;23.40;62.60;;;;;;5420980;26;20449;-92
2024/04/10 07:10:55;;;;;;;2.50;1.10;;;23.30;61.60;;;;;;5420227;26;20554;-91
2024/04/10 07:13:24;;;;;;;3.43;1.30;;;23.40;62.60;;;;;;5420714;26;20458;-92
2024/04/10 07:16:02;;;;;;;3.30;1.50;;;23.50;61.80;;;;;;5421186;26;20259;-94
2024/04/10 07:18:31;;;;;;;2.63;1.17;;;23.30;61.60;;;;;;5420606;26;20446;-92
2024/04/10 07:21:01;;;;;;;3.40;1.37;;;23.40;61.80;;;;;;5420256;26;20559;-92
2024/04/10 07:23:31;;;;;;;2.50;1.67;;;23.30;61.60;;;;;;5419955;26;20487;-92
2024/04/10 07:26:08;;;;;;;2.50;1.23;;;23.30;61.60;;;;;;5420282;26;20836;-93
2024/04/10 07:28:37;;;;;;;4.00;1.80;;;23.40;61.70;;;;;;5420227;26;20504;-93
2024/04/10 07:31:05;;;;;;;1.90;1.00;;;23.30;61.70;;;;;;5420090;26;20485;-92
2024/04/10 07:33:34;;;;;;;2.63;1.53;;;23.30;61.60;;;;;;5420243;26;20450;-93
2024/04/10 07:36:07;;;;;;;3.20;1.30;;;23.30;61.70;;;;;;5421050;26;20786;-93
2024/04/10 07:38:35;;;;;;;2.57;1.30;;;23.30;61.90;;;;;;5420825;26;20800;-92
2024/04/10 07:41:01;;;;;;;3.80;1.53;;;23.30;61.60;;;;;;5420199;26;20927;-92
2024/04/10 07:43:31;;;;;;;1.80;1.00;;;23.30;62.50;;;;;;5420526;26;20446;-94
2024/04/10 07:45:57;;;;;;;2.20;1.30;;;23.30;61.70;;;;;;5419865;26;20547;-92
2024/04/10 07:48:28;;;;;;;2.40;1.20;;;23.30;61.70;;;;;;5420345;26;20458;-93
2024/04/10 07:50:54;;;;;;;2.83;1.50;;;23.30;61.60;;;;;;5420269;26;20216;-92
2024/04/10 07:53:23;;;;;;;2.83;1.50;;;23.30;61.70;;;;;;5419760;26;20526;-92
2024/04/10 07:55:49;;;;;;;2.40;1.20;;;23.30;61.60;;;;;;5420220;26;20451;-92
2024/04/10 07:58:18;;;;;;;2.03;1.20;;;23.30;61.60;;;;;;5420122;26;20504;-91
2024/04/10 08:00:44;;;;;;;2.63;1.50;;;23.40;62.60;;;;;;5426401;26;20251;-92
2024/04/10 08:03:12;;;;;;;2.13;1.13;;;23.30;61.70;;;;;;5423586;26;20522;-91
2024/04/10 08:05:41;;;;;;;2.87;1.60;;;23.30;61.60;;;;;;5419937;26;20236;-92
2024/04/10 08:08:10;;;;;;;2.37;1.20;;;23.30;61.60;;;;;;5419802;26;20496;-91
2024/04/10 08:10:36;;;;;;;2.43;1.40;;;23.30;61.70;;;;;;5419868;26;20579;-93
2024/04/10 08:13:05;;;;;;;3.37;1.47;;;23.40;61.80;;;;;;5420018;26;20450;-92
2024/04/10 08:15:31;;;;;;;2.20;1.30;;;23.30;61.60;;;;;;5420260;26;20247;-92
2024/04/10 08:18:00;;;;;;;4.97;1.50;;;23.40;61.70;;;;;;5419685;26;20483;-92
2024/04/10 08:20:27;;;;;;;1.90;1.17;;;23.40;61.70;;;;;;5420343;26;20450;-92
2024/04/10 08:22:58;;;;;;;4.50;1.30;;;23.30;61.70;;;;;;5419683;26;20446;-92
2024/04/10 08:25:24;;;;;;;2.63;1.10;;;23.30;61.70;;;;;;5419809;26;20454;-92
2024/04/10 08:27:53;;;;;;;2.87;1.40;;;23.30;61.60;;;;;;5420231;26;20450;-93
2024/04/10 08:30:19;;;;;;;3.30;1.70;;;23.30;61.70;;;;;;5421067;26;20442;-92
2024/04/10 08:32:47;;;;;;;3.77;1.30;;;23.20;61.60;;;;;;5420029;26;20859;-92
2024/04/10 08:35:13;;;;;;;2.20;1.20;;;23.30;61.70;;;;;;5419894;26;20561;-92
2024/04/10 08:37:42;;;;;;;2.37;1.67;;;23.20;61.50;;;;;;5420380;26;20535;-93
2024/04/10 08:40:11;;;;;;;2.20;1.53;;;23.20;61.60;;;;;;5425692;26;20430;-92
2024/04/10 08:42:44;;;;;;;2.50;1.17;;;23.30;61.50;;;;;;5419188;26;20490;-92
2024/04/10 08:45:12;;;;;;;3.60;1.77;;;23.30;61.60;;;;;;5419362;26;20454;-92
2024/04/10 08:47:41;;;;;;;2.40;1.47;;;23.20;61.50;;;;;;5419057;26;21012;-94
2024/04/10 08:50:08;;;;;;;3.00;1.53;;;23.30;61.70;;;;;;5420654;26;20458;-92
2024/04/10 08:52:37;;;;;;;3.30;1.97;;;23.30;61.70;;;;;;5424644;26;20506;-92
2024/04/10 08:55:05;;;;;;;2.40;1.50;;;23.30;61.60;;;;;;5418236;26;20936;-92
2024/04/10 08:57:40;;;;;;;2.30;1.63;;;23.20;61.60;;;;;;5424409;26;20509;-92
2024/04/10 09:00:10;;;;;;;2.47;1.53;;;23.20;61.50;;;;;;5423817;26;20525;-92
2024/04/10 09:02:39;;;;;;;2.77;1.57;;;23.20;61.60;;;;;;5422602;26;20498;-92
2024/04/10 09:05:06;;;;;;;1.87;1.10;;;23.20;61.60;;;;;;5423108;26;20483;-92
2024/04/10 09:07:35;;;;;;;2.87;1.60;;;23.20;61.50;;;;;;5420174;26;20435;-93
2024/04/10 09:10:08;;;;;;;1.90;1.07;;;23.20;61.50;;;;;;5420382;26;20580;-93
2024/04/10 09:12:41;;;;;;;2.90;1.30;;;23.20;61.50;;;;;;5420868;26;20450;-93
2024/04/10 09:15:09;;;;;;;2.57;1.60;;;23.20;61.60;;;;;;5419192;26;20442;-92
2024/04/10 09:17:38;;;;;;;3.00;1.73;;;23.20;61.50;;;;;;5422744;26;20450;-92
2024/04/10 09:20:11;;;;;;;2.40;1.33;;;23.30;61.60;;;;;;5421927;26;20443;-92
2024/04/10 09:22:39;;;;;;;2.97;1.53;;;23.20;61.40;;;;;;5425590;26;20442;-92
2024/04/10 09:25:10;;;;;;;2.47;1.50;;;23.20;61.50;;;;;;5421646;26;20450;-92
2024/04/10 09:27:42;;;;;;;2.60;1.27;;;23.20;61.40;;;;;;5421766;26;20473;-92
2024/04/10 09:30:09;;;;;;;3.20;1.97;;;23.20;61.50;;;;;;5421645;26;20567;-92
2024/04/10 09:32:39;;;;;;;3.10;1.60;;;23.20;61.40;;;;;;5420816;26;20487;-93
2024/04/10 09:35:09;;;;;;;3.73;1.93;;;23.20;61.50;;;;;;5422264;26;20484;-92
2024/04/10 09:37:37;;;;;;;2.30;1.60;;;23.20;61.50;;;;;;5436758;26;20434;-91
2024/04/10 09:40:05;;;;;;;2.40;1.50;;;23.20;61.50;;;;;;5440839;26;20427;-93
2024/04/10 09:42:36;;;;;;;2.80;1.43;;;23.20;61.40;;;;;;5427858;26;20490;-92
2024/04/10 09:45:15;;;;;;;2.23;1.23;;;23.20;61.50;;;;;;5418169;26;20450;-92
2024/04/10 09:47:46;;;;;;;2.23;1.40;;;23.20;61.40;;;;;;5418456;26;20501;-92
2024/04/10 09:50:17;;;;;;;2.17;1.57;;;23.20;61.40;;;;;;5418450;26;20462;-92
2024/04/10 09:52:48;;;;;;;3.33;1.60;;;23.20;61.40;;;;;;5417972;26;20454;-92
2024/04/10 09:55:14;;;;;;;1.90;1.20;;;23.10;61.10;;;;;;5418164;26;20457;-92
2024/04/10 09:57:44;;;;;;;3.10;1.50;;;23.20;61.30;;;;;;5417704;26;20787;-92
2024/04/10 10:00:13;;;;;;;3.03;1.60;;;23.30;61.40;;;;;;5417388;26;20789;-92
2024/04/10 10:02:41;;;;;;;3.03;1.63;;;23.20;61.40;;;;;;5417557;26;20841;-92
2024/04/10 10:05:19;;;;;;;4.23;1.80;;;23.20;61.30;;;;;;5417730;26;20474;-93
2024/04/10 10:07:48;;;;;;;2.27;1.53;;;23.20;61.30;;;;;;5419409;26;20493;-92
2024/04/10 10:10:14;;;;;;;2.87;1.67;;;23.20;61.30;;;;;;5421564;26;20505;-92
2024/04/10 10:12:44;;;;;;;2.23;1.60;;;23.30;61.30;;;;;;5421063;26;20438;-93
2024/04/10 10:15:13;;;;;;;2.87;1.27;;;23.30;61.30;;;;;;5421229;26;20484;-92
2024/04/10 10:17:44;;;;;;;2.43;1.30;;;23.20;61.30;;;;;;5433671;26;20458;-92
2024/04/10 10:20:19;;;;;;;2.50;1.57;;;23.30;61.30;;;;;;5423448;26;20454;-93
2024/04/10 10:22:59;;;;;;;2.53;1.50;;;23.20;61.20;;;;;;5423244;26;20446;-92
2024/04/10 10:25:25;;;;;;;1.80;1.10;;;23.20;61.20;;;;;;5421453;26;20454;-92
2024/04/10 10:27:53;;;;;;;2.57;1.40;;;23.30;61.20;;;;;;5420774;26;20830;-92
2024/04/10 10:30:22;;;;;;;1.90;1.33;;;23.20;61.10;;;;;;5420966;26;20217;-93
2024/04/10 10:32:51;;;;;;;2.47;1.10;;;23.20;61.20;;;;;;5430052;26;20443;-92
2024/04/10 10:35:17;;;;;;;1.80;1.10;;;23.20;61.10;;;;;;5443380;26;20519;-92
2024/04/10 10:37:46;;;;;;;2.30;1.50;;;23.20;62.00;;;;;;5443382;26;20447;-92
2024/04/10 10:40:16;;;;;;;2.07;1.30;;;23.20;61.10;;;;;;5768652;21;20353;-92
2024/04/10 10:42:46;;;;;;;2.40;1.50;;;23.30;61.20;;;;;;5457122;26;21004;-92
2024/04/10 10:45:13;;;;;;;2.70;1.70;;;23.30;61.20;;;;;;5456988;26;20484;-92
2024/04/10 10:47:44;;;;;;;3.20;1.70;;;23.20;61.90;;;;;;5456584;26;20492;-92
2024/04/10 10:50:11;;;;;;;3.83;1.70;;;23.20;60.90;;;;;;5456766;26;20553;-92
2024/04/10 10:52:40;;;;;;;2.33;1.50;;;23.20;60.90;;;;;;5456572;26;20445;-92
2024/04/10 10:55:13;;;;;;;2.37;1.67;;;23.20;60.90;;;;;;5456942;26;20457;-93
2024/04/10 10:57:42;;;;;;;3.07;1.57;;;23.20;60.90;;;;;;5456168;26;20469;-92
2024/04/10 11:00:14;;;;;;;2.43;1.60;;;23.20;61.00;;;;;;5456847;26;20493;-92
2024/04/10 11:02:45;;;;;;;3.00;1.60;;;23.20;61.00;;;;;;5456832;26;20854;-92
2024/04/10 11:05:12;;;;;;;3.00;2.00;;;23.20;61.00;;;;;;5455909;26;20437;-92
2024/04/10 11:07:43;;;;;;;2.43;1.50;;;23.20;60.90;;;;;;5456669;26;20952;-92
2024/04/10 11:10:11;;;;;;;1.97;1.40;;;23.20;60.90;;;;;;5457051;26;20492;-90
2024/04/10 11:12:39;;;;;;;2.50;1.50;;;23.20;61.00;;;;;;5459723;26;20516;-92
2024/04/10 11:15:06;;;;;;;2.27;1.50;;;23.20;60.90;;;;;;5459262;26;20812;-93
2024/04/10 11:17:35;;;;;;;3.27;1.40;;;23.20;61.00;;;;;;5455974;26;20517;-91
2024/04/10 11:20:07;;;;;;;2.13;1.40;;;23.30;60.90;;;;;;5456374;26;20516;-92
2024/04/10 11:22:35;;;;;;;2.63;1.50;;;23.20;60.90;;;;;;5456562;26;20508;-91
2024/04/10 11:25:01;;;;;;;3.87;1.83;;;23.20;60.90;;;;;;5456497;26;20491;-91
2024/04/10 11:27:30;;;;;;;2.27;1.33;;;23.30;60.90;;;;;;5456052;26;20468;-91
2024/04/10 11:29:56;;;;;;;2.33;1.40;;;23.20;60.90;;;;;;5456063;26;20211;-92
2024/04/10 11:32:24;;;;;;;2.30;1.53;;;23.20;60.90;;;;;;5456789;26;20508;-91
2024/04/10 11:34:50;;;;;;;2.50;1.30;;;23.20;60.80;;;;;;5456357;26;20224;-92
2024/04/10 11:37:21;;;;;;;1.90;1.33;;;23.30;60.90;;;;;;5455570;26;20503;-93
2024/04/10 11:39:47;;;;;;;3.57;1.67;;;23.20;60.80;;;;;;5455711;26;20449;-93
2024/04/10 11:42:16;;;;;;;2.80;1.70;;;23.20;60.90;;;;;;5456292;26;20433;-95
2024/04/10 11:44:42;;;;;;;2.40;1.40;;;23.20;60.90;;;;;;5455606;26;20452;-92
2024/04/10 11:47:10;;;;;;;2.13;1.53;;;23.20;60.80;;;;;;5455611;26;20792;-93
2024/04/10 11:49:36;;;;;;;3.23;1.70;;;23.20;60.80;;;;;;5455905;26;20215;-93
2024/04/10 11:52:05;;;;;;;3.47;2.27;;;23.20;60.80;;;;;;5455800;26;20508;-93
2024/04/10 11:54:33;;;;;;;3.27;1.90;;;23.20;60.80;;;;;;5455311;26;20304;-93
2024/04/10 11:57:05;;;;;;;3.20;1.70;;;23.20;60.70;;;;;;5455476;26;20785;-92
2024/04/10 11:59:31;;;;;;;2.80;1.83;;;23.20;60.70;;;;;;5455094;26;20588;-93
2024/04/10 12:01:59;;;;;;;2.67;1.33;;;23.30;60.70;;;;;;5455244;26;20444;-93
2024/04/10 12:04:25;;;;;;;2.30;1.47;;;23.20;60.70;;;;;;5455818;26;20501;-92
2024/04/10 12:06:55;;;;;;;2.20;1.50;;;23.30;60.80;;;;;;5455692;26;20835;-93
2024/04/10 12:09:21;;;;;;;2.20;1.30;;;23.20;60.80;;;;;;5456132;26;20211;-92
2024/04/10 12:11:52;;;;;;;3.40;1.70;;;23.20;60.80;;;;;;5455671;26;21016;-91
2024/04/10 12:14:18;;;;;;;2.00;1.40;;;23.20;60.70;;;;;;5455350;26;20698;-92
2024/04/10 12:16:47;;;;;;;2.70;1.87;;;23.10;60.40;;;;;;5456223;26;20452;-93
2024/04/10 12:19:14;;;;;;;2.70;1.67;;;23.20;60.50;;;;;;5456624;26;20220;-92
2024/04/10 12:21:42;;;;;;;1.90;1.20;;;23.20;60.40;;;;;;5455896;26;20460;-91
2024/04/10 12:24:08;;;;;;;2.90;1.80;;;23.20;60.50;;;;;;5456351;26;20460;-91
2024/04/10 12:26:37;;;;;;;2.17;1.33;;;23.30;60.60;;;;;;5455714;26;20517;-91
2024/04/10 12:29:05;;;;;;;2.10;1.30;;;23.20;60.40;;;;;;5454656;26;20560;-92
2024/04/10 12:31:34;;;;;;;3.03;1.50;;;23.20;60.30;;;;;;5454642;26;20461;-91
2024/04/10 12:34:00;;;;;;;2.43;1.37;;;23.20;60.20;;;;;;5455012;26;20453;-90
2024/04/10 12:39:16;;;;;;;2.60;1.40;;;23.10;60.60;;;;;;5458014;26;20484;-92
2024/04/10 12:41:47;;;;;;;2.67;1.30;;;23.20;60.20;;;;;;5455342;26;20465;-91
2024/04/10 12:44:22;;;;;;;2.83;1.70;;;23.30;60.10;;;;;;5455178;26;20570;-92
2024/04/10 12:46:53;;;;;;;2.03;1.30;;;23.10;60.00;;;;;;5461406;26;20522;-92
2024/04/10 12:49:19;;;;;;;3.13;1.63;;;23.20;60.00;;;;;;5477775;26;20456;-90
2024/04/10 12:53:38;;;;;;;1.70;1.20;;;23.30;60.10;;;;;;544515;25;153134962;-91
2024/04/10 12:56:04;;;;;;;1.87;1.20;;;23.30;59.90;;;;;;5469749;26;20226;-93
2024/04/10 12:58:33;;;;;;;2.27;1.43;;;23.20;59.80;;;;;;5436271;26;20465;-91
2024/04/10 13:00:59;;;;;;;2.20;1.30;;;23.10;59.70;;;;;;5437307;26;20502;-92
2024/04/10 13:03:31;;;;;;;2.00;1.30;;;23.10;59.80;;;;;;5436558;26;20453;-92
2024/04/10 13:05:58;;;;;;;1.87;1.27;;;23.10;59.80;;;;;;5437173;26;20522;-91
2024/04/10 13:08:26;;;;;;;2.83;1.30;;;23.10;59.90;;;;;;5436807;26;21033;-92
2024/04/10 13:11:05;;;;;;;3.10;1.70;;;23.10;59.70;;;;;;5437465;26;20558;-92
2024/04/10 13:13:34;;;;;;;2.00;1.40;;;23.10;59.60;;;;;;5437682;26;20495;-91